Date,TemperatureHighF,TemperatureAvgF,TemperatureLowF,DewpointHighF,DewpointAvgF,DewpointLowF,HumidityHigh,HumidityAvg,HumidityLow,PressureMaxIn,PressureMinIn,WindSpeedMaxMPH,WindSpeedAvgMPH,GustSpeedMaxMPH,PrecipitationSumIn
2013-1-1,45.1,39.0,34.6,34.7,31.7,29.6,92,75,64,30.43,30.28,10,2,24,0.00
2013-1-2,47.9,40.0,35.9,31.8,28.7,26.4,71,64,52,30.29,30.15,8,2,20,0.00
2013-1-3,51.5,42.1,35.5,48.4,34.3,25.3,97,75,57,30.28,30.10,8,2,22,0.27
2013-1-4,54.2,47.7,43.4,48.8,45.8,41.9,97,93,80,30.35,30.17,3,0,9,0.25
2013-1-5,47.8,43.9,42.6,43.7,41.6,40.1,97,92,84,30.23,30.15,5,0,12,0.08
2013-1-6,50.7,44.9,40.3,48.1,43.1,39.5,98,93,81,30.26,30.12,2,0,7,0.10
2013-1-7,51.3,49.6,46.1,50.6,48.7,45.0,99,97,95,30.28,30.08,6,1,16,0.87
2013-1-8,52.1,50.7,48.3,50.9,49.4,47.5,97,95,91,30.26,30.04,6,1,20,0.28
2013-1-9,51.5,43.2,35.8,49.0,41.6,35.1,97,94,89,30.05,29.86,7,1,20,0.84
2013-1-10,39.9,36.6,35.9,38.3,35.7,35.1,97,96,93,30.20,30.05,3,0,12,0.73
2013-1-11,44.1,36.4,31.3,38.7,33.0,28.1,98,88,58,30.35,30.18,5,0,10,0.08
2013-1-12,42.8,34.5,29.9,33.0,29.6,27.1,94,83,62,30.44,30.33,2,0,10,0.01
2013-1-13,39.5,31.8,27.2,31.0,28.0,25.6,95,86,69,30.52,30.43,3,0,13,0.01
2013-1-14,42.6,34.5,28.1,37.0,30.8,25.5,96,86,72,30.59,30.52,1,0,7,0.00
2013-1-15,37.5,37.3,37.3,36.4,36.3,36.3,96,96,96,30.59,30.58,0,0,1,0.00
2013-1-16,38.8,37.1,35.1,36.3,35.0,30.0,96,92,76,30.59,30.45,2,0,10,0.00
2013-1-17,58.0,45.1,36.5,34.5,31.2,29.6,78,60,38,30.45,30.27,6,1,17,0.00
2013-1-18,61.2,46.6,35.4,39.7,34.0,30.4,88,63,43,30.29,30.24,5,0,12,0.00
2013-1-19,54.9,40.5,33.0,43.2,35.7,30.9,95,84,55,30.33,30.25,2,0,7,0.00
2013-1-20,56.4,41.5,33.9,35.4,32.1,29.4,93,71,45,30.34,30.22,6,0,14,0.00
2013-1-21,55.4,41.4,34.2,35.5,31.0,27.7,82,67,46,30.25,30.12,3,0,10,0.00
2013-1-22,54.6,42.6,35.2,35.7,31.5,28.0,77,65,47,30.14,29.96,5,0,14,0.00
2013-1-23,44.8,41.9,38.2,43.7,37.1,31.3,97,84,62,30.23,29.90,2,0,7,0.62
2013-1-24,50.4,42.6,34.1,47.1,40.8,33.1,97,93,84,30.24,30.12,2,0,15,0.15
2013-1-25,51.0,47.7,44.9,49.9,46.7,43.8,98,97,95,30.17,30.05,1,0,12,0.49
2013-1-26,47.9,43.9,38.6,45.9,42.6,37.8,97,95,83,30.16,30.02,7,0,17,0.51
2013-1-27,44.2,40.7,35.9,43.6,39.9,35.4,98,97,95,30.22,30.11,3,0,10,0.85
2013-1-28,46.1,44.2,43.2,44.7,43.1,42.1,96,96,93,30.34,30.17,9,2,18,0.36
2013-1-29,46.7,45.4,44.5,45.7,44.4,43.7,97,96,95,30.57,30.34,7,1,18,0.32
2013-1-30,48.8,46.8,44.8,48.3,46.1,44.0,98,97,94,30.57,30.51,5,0,13,0.42
2013-1-31,55.7,48.0,43.6,49.8,45.6,43.1,98,92,73,30.51,30.39,2,0,5,0.00
2013-2-1,56.2,47.7,38.8,46.2,43.1,38.0,98,85,64,30.39,30.25,6,1,16,0.01
2013-2-2,61.3,50.8,44.0,46.2,42.8,38.2,89,75,55,30.36,30.25,5,0,17,0.00
2013-2-3,49.6,47.5,45.6,46.3,44.8,43.8,95,90,85,30.37,30.26,0,0,3,0.00
2013-2-4,52.6,46.5,43.1,45.6,43.7,42.0,97,90,75,30.28,30.02,2,0,16,0.00
2013-2-5,51.0,47.6,45.1,48.6,45.2,42.5,96,91,82,30.11,29.97,6,0,17,0.45
2013-2-6,50.3,46.1,40.0,46.5,43.7,38.6,97,92,82,30.14,29.89,5,0,18,0.68
2013-2-7,46.4,41.1,36.4,42.2,39.4,35.4,97,94,80,30.19,29.99,1,0,6,0.09
2013-2-8,49.6,38.4,31.0,41.5,35.6,30.2,98,90,68,30.34,30.20,6,0,15,0.01
2013-2-9,48.2,41.8,35.3,44.9,40.5,34.3,97,95,88,30.36,30.32,3,0,5,0.01
2013-2-10,49.4,45.6,43.0,45.2,42.5,40.3,97,89,75,30.39,30.34,1,0,10,0.00
2013-2-11,50.3,45.4,42.0,45.8,42.7,39.4,97,91,73,30.45,30.37,2,0,7,0.07
2013-2-12,50.3,48.3,46.3,48.9,47.3,45.5,98,96,93,30.55,30.45,6,0,12,0.26
2013-2-13,51.3,47.6,44.6,49.3,46.5,43.5,100,96,86,30.56,30.50,1,0,7,0.18
2013-2-14,57.7,46.4,38.7,49.3,43.5,37.9,98,90,71,30.60,30.49,2,0,9,0.00
2013-2-15,65.8,50.3,41.0,49.2,44.9,39.9,97,84,53,30.49,30.23,3,0,14,0.01
2013-2-16,50.4,46.1,40.5,46.4,44.0,38.9,99,92,77,30.36,30.29,5,0,13,0.07
2013-2-17,47.3,40.9,36.6,41.6,38.1,35.3,98,90,66,30.36,30.13,3,0,7,0.05
2013-2-18,46.9,40.4,34.7,42.2,38.2,33.7,97,92,81,30.13,29.75,3,0,12,0.11
2013-2-19,48.5,41.7,34.7,43.8,38.9,33.4,97,90,73,30.07,29.69,2,0,10,0.17
2013-2-20,47.2,38.7,32.8,43.6,37.4,32.0,98,95,83,30.18,30.07,3,0,17,0.49
2013-2-21,45.4,42.8,38.7,44.6,41.7,37.9,98,96,92,30.28,30.18,2,0,12,0.46
2013-2-22,48.2,45.4,40.4,47.0,43.5,38.2,97,93,79,30.25,30.00,7,2,26,1.06
2013-2-23,48.0,41.5,38.2,41.6,38.2,35.7,96,88,64,30.50,30.18,7,1,20,0.21
2013-2-24,52.4,44.1,38.0,45.1,38.7,35.6,97,82,57,30.50,30.12,5,0,9,0.01
2013-2-25,49.2,43.4,35.9,45.8,39.9,34.8,96,88,66,30.45,30.10,12,2,24,0.53
2013-2-26,52.5,41.0,32.2,41.3,36.7,31.2,97,86,55,30.44,30.29,5,0,10,0.01
2013-2-27,49.9,46.3,41.8,48.9,44.8,39.6,97,95,84,30.33,30.24,1,0,7,0.25
2013-2-28,53.3,51.4,48.7,52.4,50.7,47.8,98,97,96,30.50,30.24,3,1,17,1.03
2013-3-1,56.7,51.7,45.8,53.7,50.2,45.0,98,94,85,30.52,30.37,1,0,9,0.07
2013-3-2,53.5,47.5,41.0,50.3,46.4,39.9,98,96,87,30.37,30.26,2,0,10,0.07
2013-3-3,51.0,40.9,33.1,41.2,36.8,32.3,98,87,60,30.38,30.25,3,0,14,0.00
2013-3-4,57.0,43.6,34.2,45.3,37.5,33.1,97,81,50,30.25,29.92,5,1,13,0.01
2013-3-5,45.2,42.7,38.6,43.7,41.5,37.1,97,96,92,29.92,29.65,2,0,7,0.59
2013-3-6,48.7,44.5,40.3,45.8,42.9,39.0,97,94,86,30.00,29.59,3,0,20,0.38
2013-3-7,54.0,42.8,33.3,43.9,38.5,32.6,98,86,62,30.08,30.00,5,0,10,0.01
2013-3-8,55.0,42.4,31.7,45.2,38.6,30.7,98,88,64,30.27,30.07,5,1,12,0.01
2013-3-9,51.6,41.8,37.0,44.0,39.6,36.0,97,92,75,30.55,30.26,2,0,6,0.00
2013-3-10,53.9,44.1,34.9,48.0,41.5,33.9,97,91,64,30.55,30.46,3,0,7,0.04
2013-3-11,55.1,50.5,47.2,51.3,48.8,46.4,98,94,86,30.47,30.28,3,0,7,0.01
2013-3-12,58.2,50.2,46.3,51.0,47.5,45.5,98,91,71,30.29,30.24,5,0,10,0.00
2013-3-13,61.0,50.5,45.7,51.6,46.9,44.6,98,88,68,30.29,30.16,7,0,9,0.00
2013-3-14,55.7,49.9,47.0,50.7,47.1,45.0,97,90,73,30.27,30.12,3,0,13,0.13
2013-3-15,56.5,51.5,47.3,53.2,50.1,46.5,98,95,87,30.28,30.26,3,0,9,0.05
2013-3-16,49.1,46.4,41.9,47.7,45.0,37.8,97,95,84,30.26,30.11,7,1,20,0.48
2013-3-17,49.7,42.6,37.3,41.9,38.0,35.5,96,85,62,30.37,30.25,6,1,12,0.06
2013-3-18,54.2,42.8,33.0,42.8,38.0,32.0,97,84,57,30.35,30.13,5,0,12,0.00
2013-3-19,52.3,48.3,44.8,50.7,42.9,36.6,97,82,68,30.13,29.69,7,1,22,0.57
2013-3-20,54.7,47.8,41.5,51.0,43.9,35.6,95,87,70,30.25,29.61,14,3,35,0.76
2013-3-21,48.3,42.3,38.9,40.8,38.1,35.8,96,85,67,30.40,30.25,9,1,17,0.25
2013-3-22,47.4,39.6,34.0,40.4,36.0,32.2,97,88,64,30.45,30.38,5,0,16,0.24
2013-3-23,51.9,40.6,32.2,38.1,34.3,30.2,97,80,45,30.45,30.31,5,0,12,0.01
2013-3-24,55.5,45.8,38.3,39.2,36.7,34.0,92,72,49,30.31,30.13,6,0,13,0.00
2013-3-25,57.3,46.7,38.2,43.1,39.8,36.6,94,78,53,30.13,29.99,5,0,7,0.00
2013-3-26,51.5,47.2,43.6,48.1,45.2,41.4,97,93,85,30.06,29.99,2,0,4,0.03
2013-3-27,58.5,50.4,44.7,50.8,47.7,43.6,96,91,75,30.03,29.95,5,0,12,0.02
2013-3-28,60.5,52.1,46.7,53.7,49.1,45.9,98,90,76,30.19,30.03,3,0,9,0.02
2013-3-29,68.6,54.8,47.3,54.0,49.6,46.2,97,84,59,30.24,30.16,2,0,9,0.01
2013-3-30,80.8,61.2,45.6,51.7,47.6,44.3,97,67,31,30.19,29.96,7,1,21,0.01
2013-3-31,63.5,55.0,48.3,53.6,50.2,46.9,96,85,65,30.08,30.01,6,1,18,0.00
2013-4-1,55.1,52.3,50.3,51.6,50.1,48.3,96,92,87,30.24,30.08,2,0,10,0.01
2013-4-2,58.3,51.6,48.5,51.7,48.9,46.5,97,91,77,30.27,30.21,3,0,8,0.02
2013-4-3,64.1,53.7,45.4,54.5,49.3,44.3,96,86,69,30.22,29.95,3,0,6,0.00
2013-4-4,57.2,53.0,50.7,54.9,51.5,49.5,97,95,88,29.94,29.74,6,1,20,0.55
2013-4-5,53.9,51.9,50.9,51.8,50.4,49.7,97,95,88,30.02,29.87,6,1,20,0.81
2013-4-6,54.6,51.1,46.8,50.7,48.7,45.6,97,91,82,30.07,29.72,5,1,23,0.55
2013-4-7,52.4,46.8,41.7,51.0,44.7,40.4,96,93,87,30.05,29.67,9,2,28,0.67
2013-4-8,52.6,45.6,40.9,46.3,42.0,39.3,96,88,70,30.36,30.05,9,1,13,0.01
2013-4-9,61.1,49.8,40.8,48.8,44.2,39.3,96,82,60,30.39,30.29,5,0,7,0.00
2013-4-10,54.8,51.8,43.5,50.6,46.3,42.0,96,82,75,30.41,30.23,5,0,15,0.01
2013-4-11,55.6,47.1,40.5,45.7,42.9,39.7,97,86,68,30.42,30.22,7,1,12,0.02
2013-4-12,52.8,44.3,35.9,46.6,41.3,34.9,97,90,71,30.22,29.96,8,1,20,0.16
2013-4-13,50.1,45.1,40.6,42.0,39.5,36.0,96,81,60,30.18,30.05,7,2,18,0.21
2013-4-14,48.9,43.6,39.7,42.9,40.5,38.1,97,89,74,30.17,30.01,7,1,12,0.13
2013-4-15,52.6,44.7,39.4,42.7,40.2,38.0,97,85,65,30.25,30.02,8,1,14,0.16
2013-4-16,55.2,46.3,37.4,45.8,41.4,36.2,97,84,65,30.46,30.25,7,1,15,0.00
2013-4-17,55.3,46.6,37.8,46.4,42.1,36.5,97,85,68,30.55,30.46,6,1,14,0.00
2013-4-18,57.2,50.7,44.3,48.3,44.7,41.7,93,81,61,30.53,30.40,6,1,14,0.00
2013-4-19,51.9,50.2,48.9,50.6,49.1,48.1,97,96,92,30.41,30.26,8,1,15,0.82
2013-4-20,56.1,49.7,45.4,48.1,46.2,43.5,97,88,70,30.42,30.34,3,0,10,0.04
2013-4-21,53.3,48.9,45.9,47.7,45.9,44.2,96,89,80,30.37,30.31,2,0,10,0.02
2013-4-22,68.7,52.9,37.3,45.6,38.8,31.5,98,66,29,30.42,30.34,7,1,20,0.00
2013-4-23,66.8,51.9,36.5,42.3,37.3,31.8,95,64,28,30.38,30.20,7,1,15,0.00
2013-4-24,79.0,58.1,40.5,41.7,36.0,25.2,92,52,15,30.25,30.04,5,1,16,0.00
2013-4-25,67.3,53.3,40.2,51.1,45.2,38.7,95,76,41,30.22,30.06,5,1,12,0.00
2013-4-26,73.6,56.0,44.5,54.4,47.1,43.4,97,76,40,30.30,30.21,5,0,10,0.00
2013-4-27,60.4,50.9,45.9,48.6,46.4,44.3,95,85,65,30.37,30.30,8,1,12,0.00
2013-4-28,59.8,53.7,49.9,51.2,48.7,46.5,96,84,65,30.34,30.21,5,1,12,0.08
2013-4-29,56.2,50.4,41.0,50.6,43.4,36.5,96,78,52,30.30,30.18,6,1,20,0.23
2013-4-30,55.8,45.7,37.2,42.4,37.8,35.4,96,76,48,30.49,30.30,6,1,17,0.01
2013-5-1,68.7,51.2,32.7,46.3,39.0,31.2,95,68,31,30.53,30.44,6,1,12,0.01
2013-5-2,77.9,58.6,41.3,44.6,41.2,36.0,93,59,23,30.44,30.29,5,1,15,0.00
2013-5-3,75.4,57.3,39.5,50.7,45.4,37.9,96,69,39,30.34,30.15,5,0,12,0.00
2013-5-4,84.0,62.1,43.2,52.2,43.6,33.9,95,62,17,30.16,29.88,8,2,20,0.00
2013-5-5,87.2,72.0,52.1,48.8,42.4,36.1,85,41,18,29.88,29.67,7,2,22,0.00
2013-5-6,65.6,55.1,45.1,52.4,48.9,43.5,95,81,61,30.00,29.86,6,1,15,0.00
2013-5-7,61.1,54.6,52.0,51.5,49.3,48.1,89,82,68,30.11,29.99,7,1,15,0.00
2013-5-8,63.0,54.8,51.8,52.3,49.1,47.8,88,81,68,30.23,30.11,6,1,12,0.00
2013-5-9,65.4,55.9,49.9,55.3,50.5,47.8,93,83,66,30.24,30.16,5,1,10,0.00
2013-5-10,63.1,52.9,50.2,54.7,50.0,48.5,95,90,74,30.30,30.21,5,0,12,0.00
2013-5-11,74.8,59.7,49.8,59.0,51.7,47.3,94,77,48,30.29,30.10,5,0,10,0.00
2013-5-12,67.6,58.8,54.9,57.1,54.7,52.7,96,87,68,30.20,30.12,3,0,12,0.05
2013-5-13,57.7,55.1,50.7,55.0,53.0,49.3,96,93,84,30.27,30.11,3,0,14,0.07
2013-5-14,63.6,53.9,46.7,49.8,46.1,40.3,97,78,46,30.27,30.18,6,1,13,0.00
2013-5-15,60.0,51.8,45.1,52.4,48.3,43.4,96,88,71,30.18,30.05,1,0,10,0.11
2013-5-16,58.8,55.1,51.2,53.6,51.4,49.2,97,88,76,30.05,29.99,5,0,12,0.06
2013-5-17,60.9,53.9,48.1,52.1,48.5,46.3,97,83,63,30.16,30.04,8,1,17,0.04
2013-5-18,58.0,53.0,48.2,55.0,50.7,46.3,96,92,82,30.30,30.14,3,0,16,0.10
2013-5-19,63.0,56.7,47.3,50.2,48.2,45.1,92,74,61,30.47,30.39,6,1,14,0.10
2013-5-20,65.2,53.1,41.3,51.0,46.5,40.0,97,80,54,30.40,30.01,7,1,13,0.00
2013-5-21,51.2,47.4,43.3,48.5,45.2,41.2,96,92,80,30.07,29.93,6,0,23,0.92
2013-5-22,50.7,47.4,43.9,49.1,46.0,42.3,97,95,93,30.06,30.00,3,0,12,1.83
2013-5-23,55.5,50.0,47.0,50.3,48.1,45.7,97,93,77,30.07,30.03,3,0,13,0.85
2013-5-24,54.7,50.4,47.9,51.2,48.7,46.8,97,94,85,30.15,30.05,3,0,14,0.22
2013-5-25,61.8,53.6,46.6,52.3,48.7,45.5,97,85,60,30.14,29.99,5,1,13,0.12
2013-5-26,58.7,54.1,51.2,52.4,50.6,49.0,96,88,73,30.11,29.98,6,1,14,0.10
2013-5-27,57.7,53.9,51.6,56.6,52.6,50.3,97,95,91,30.02,29.78,5,1,15,1.28
2013-5-28,60.3,54.1,50.7,52.6,50.5,48.4,97,88,66,30.01,29.76,6,0,12,0.35
2013-5-29,58.6,53.6,49.9,53.8,51.0,48.5,97,91,76,30.12,29.67,9,1,20,0.61
2013-5-30,49.4,49.4,49.4,48.3,48.3,48.3,96,96,96,30.12,30.12,0,0,0,0.01
2013-5-31,66.3,56.8,43.6,52.4,49.1,42.8,97,77,57,30.37,30.12,5,1,14,0.00
2013-6-1,67.1,56.4,45.1,55.5,49.8,44.1,97,80,59,30.30,30.12,6,1,13,0.00
2013-6-2,64.0,57.7,51.3,54.8,52.0,48.7,95,82,68,30.16,30.10,9,1,16,0.01
2013-6-3,69.0,57.5,48.4,55.2,50.6,46.5,95,79,60,30.16,30.10,6,1,12,0.00
2013-6-4,77.3,59.9,44.4,58.1,51.0,43.1,97,75,46,30.12,30.04,6,1,12,0.00
2013-6-5,72.1,59.9,49.6,60.2,54.0,47.9,97,82,63,30.14,30.07,8,1,14,0.00
2013-6-6,68.5,59.1,52.6,56.9,52.8,49.8,92,80,65,30.13,30.08,5,1,12,0.00
2013-6-7,70.4,58.5,47.4,57.2,51.3,46.0,96,79,48,30.21,30.12,6,1,12,0.00
2013-6-8,72.6,61.6,52.4,55.4,51.7,48.3,94,72,47,30.20,30.13,3,1,12,0.00
2013-6-9,67.4,57.6,49.6,51.6,48.6,45.6,92,73,51,30.15,30.07,5,1,21,0.00
2013-6-10,64.2,55.1,42.9,47.5,45.5,40.8,95,72,51,30.08,30.01,6,1,18,0.00
2013-6-11,60.8,54.6,48.3,50.9,49.0,46.4,94,82,62,30.21,30.07,7,1,13,0.03
2013-6-12,60.6,53.5,46.9,50.9,48.8,45.6,97,85,68,30.26,30.19,6,1,12,0.00
2013-6-13,59.3,54.7,51.3,55.3,51.9,49.3,96,90,77,30.35,30.23,3,0,12,0.44
2013-6-14,72.3,60.0,50.7,56.1,52.4,49.5,96,78,52,30.34,30.02,5,0,12,0.01
2013-6-15,62.4,55.5,47.3,56.5,52.0,46.0,97,88,80,30.10,29.97,3,0,12,0.00
2013-6-16,65.7,58.6,54.0,55.7,52.6,50.7,92,81,69,30.19,30.10,7,1,12,0.00
2013-6-17,64.1,57.6,51.6,55.8,53.2,50.2,95,86,65,30.17,30.07,5,1,16,0.00
2013-6-18,63.3,56.1,48.8,53.8,51.7,47.4,97,86,69,30.07,30.02,7,1,18,0.00
2013-6-19,63.0,56.0,51.0,55.2,52.5,49.6,96,89,71,30.17,30.01,6,1,14,0.00
2013-6-20,65.0,57.2,52.8,56.2,53.3,51.1,96,87,67,30.19,30.11,6,1,14,0.48
2013-6-21,68.0,58.7,50.2,55.6,52.0,49.1,97,80,57,30.22,30.15,6,1,13,0.00
2013-6-22,74.6,60.9,48.0,58.2,53.2,46.7,97,78,53,30.15,29.91,6,1,12,0.05
2013-6-23,65.6,60.4,56.2,61.2,58.3,55.1,97,93,82,29.91,29.69,2,0,12,0.27
2013-6-24,61.7,57.6,54.7,57.3,55.5,53.6,97,93,81,29.76,29.70,1,0,12,0.30
2013-6-25,64.3,58.9,55.5,60.3,56.7,54.1,97,93,78,29.89,29.72,5,0,14,0.49
2013-6-26,70.4,63.2,57.8,61.1,59.3,56.7,97,88,70,30.07,29.89,6,0,13,0.12
2013-6-27,72.8,65.2,60.2,64.3,61.3,58.6,96,87,73,30.21,30.03,6,1,12,0.01
2013-6-28,78.1,67.2,58.8,66.0,60.9,57.4,97,82,56,30.20,30.12,6,1,12,0.00
2013-6-29,83.9,69.8,56.5,64.7,60.2,55.3,96,74,46,30.16,30.02,5,0,12,0.00
2013-6-30,74.5,65.6,57.0,65.1,60.4,55.7,97,84,65,30.02,29.97,3,1,10,0.00
2013-7-1,74.2,65.9,60.4,65.5,61.1,58.1,95,85,72,30.11,29.99,6,1,12,0.00
2013-7-2,76.2,65.3,59.5,63.5,59.4,56.8,93,82,61,30.14,30.09,3,0,12,0.00
2013-7-3,74.3,63.2,53.4,58.0,54.7,52.1,97,76,51,30.18,30.14,8,1,12,0.00
2013-7-4,70.2,61.3,50.7,55.7,53.0,49.0,96,75,58,30.19,30.11,7,1,18,0.00
2013-7-5,71.0,61.7,52.0,56.7,53.3,49.5,93,75,57,30.13,30.03,5,1,15,0.00
2013-7-6,70.6,59.3,48.1,57.8,53.1,46.5,96,81,60,30.04,29.95,5,1,12,0.00
2013-7-7,70.2,62.0,57.0,58.0,54.9,53.0,88,78,63,30.04,29.98,7,1,13,0.00
2013-7-8,74.8,60.7,50.8,59.1,54.0,48.8,95,80,57,30.12,30.04,5,0,10,0.00
2013-7-9,74.8,61.2,51.9,62.4,55.9,50.4,96,84,63,30.13,30.08,6,1,12,0.00
2013-7-10,71.0,60.4,52.3,57.0,52.7,48.5,95,77,59,30.13,30.04,6,1,15,0.00
2013-7-11,70.1,58.9,47.2,53.0,49.4,45.3,95,72,50,30.12,30.04,6,1,18,0.00
2013-7-12,68.8,57.3,44.7,51.8,48.1,43.1,96,74,49,30.15,30.05,5,1,16,0.00
2013-7-13,73.7,59.6,44.3,55.4,50.1,42.7,97,74,48,30.20,30.08,7,0,15,0.00
2013-7-14,76.7,60.8,46.5,59.0,50.4,45.0,97,72,43,30.14,30.04,5,0,12,0.00
2013-7-15,78.2,60.3,45.9,59.3,51.7,44.3,96,76,46,30.07,29.85,5,0,10,0.00
2013-7-16,67.0,57.6,51.8,58.4,54.4,49.8,96,89,74,30.08,29.83,3,0,12,0.00
2013-7-17,67.8,60.4,53.1,56.8,54.5,50.5,94,82,64,30.24,30.08,6,0,12,0.00
2013-7-18,73.1,59.2,47.4,58.3,52.4,46.1,97,80,55,30.25,30.16,2,0,10,0.00
2013-7-19,71.2,59.7,53.7,58.4,53.7,50.9,91,81,63,30.20,30.11,5,0,10,0.00
2013-7-20,70.3,59.1,55.5,58.4,53.8,51.5,90,83,66,30.14,30.03,5,0,10,0.00
2013-7-21,74.0,61.4,54.3,60.6,55.0,51.7,92,81,61,30.05,29.97,6,0,12,0.00
2013-7-22,74.9,62.6,54.9,60.8,55.8,52.5,92,80,59,30.08,30.00,3,0,10,0.00
2013-7-23,74.2,59.4,51.4,62.0,54.1,50.3,96,84,59,30.09,30.02,6,1,12,0.00
2013-7-24,71.5,58.9,50.8,59.5,53.2,49.4,95,83,64,30.11,30.05,5,1,10,0.00
2013-7-25,77.3,61.6,50.0,59.8,53.4,48.6,95,77,47,30.14,30.07,5,0,9,0.00
2013-7-26,75.2,60.8,47.4,58.5,51.7,45.8,100,74,49,30.23,30.11,5,0,14,0.00
2013-7-27,71.6,59.7,48.9,55.7,51.9,47.2,96,77,55,30.24,30.12,7,1,15,0.00
2013-7-28,69.1,62.4,55.3,55.9,53.5,50.8,85,73,61,30.12,30.05,6,1,14,0.00
2013-7-29,67.0,64.8,57.2,54.7,53.8,52.6,86,68,63,30.12,30.05,6,2,12,0.00
2013-7-30,67.9,59.6,54.8,58.7,54.8,51.9,92,84,70,30.20,30.12,5,0,12,0.00
2013-7-31,62.9,59.1,56.9,57.0,55.6,54.7,95,88,80,30.19,30.13,2,0,10,0.00
2013-8-1,63.3,59.0,56.5,58.2,56.5,55.4,96,91,80,30.18,30.12,3,0,10,0.09
2013-8-2,66.7,60.2,55.7,59.3,56.8,53.7,96,89,76,30.19,30.14,5,0,7,0.05
2013-8-3,75.1,61.9,52.2,62.5,56.5,50.8,97,84,63,30.15,30.04,7,0,10,0.00
2013-8-4,69.5,60.3,55.2,60.9,56.3,54.1,96,87,71,30.08,30.01,5,0,12,0.00
2013-8-5,70.6,58.9,52.9,59.9,54.5,51.4,96,86,66,30.09,30.00,3,0,10,0.00
2013-8-6,75.1,60.1,51.6,60.3,53.9,50.2,96,82,54,30.05,29.98,5,0,9,0.00
2013-8-7,59.3,54.8,52.4,55.1,52.9,50.9,96,93,85,30.13,30.04,2,0,7,0.00
2013-8-8,70.4,60.2,54.5,62.7,56.6,53.1,97,88,74,30.11,29.99,3,0,10,0.02
2013-8-9,73.9,60.5,54.9,61.9,56.3,53.3,95,87,65,30.02,29.93,6,0,10,0.00
2013-8-10,63.2,59.0,56.5,57.6,56.3,54.8,95,91,81,30.12,29.99,0,0,0,0.04
2013-8-11,62.8,59.2,55.5,58.4,56.6,53.8,96,91,83,30.12,30.07,0,0,0,0.00
2013-8-12,70.3,61.0,53.0,59.6,55.6,51.0,97,83,59,30.14,30.08,0,0,0,0.00
2013-8-13,77.4,61.0,46.3,59.3,53.5,45.2,97,79,49,30.14,29.99,0,0,0,0.00
2013-8-14,74.7,62.9,53.9,63.5,57.8,52.2,96,85,54,30.03,29.97,3,0,12,0.14
2013-8-15,69.7,63.9,61.8,66.0,62.3,60.7,97,95,88,30.03,29.96,1,0,7,0.09
2013-8-16,72.0,64.7,57.1,65.0,60.1,55.1,98,86,61,30.10,30.00,5,1,12,0.00
2013-8-17,69.3,61.6,55.2,62.4,58.7,53.8,97,90,77,30.15,30.09,6,0,12,0.02
2013-8-18,77.0,65.3,55.8,63.0,59.1,54.7,97,82,60,30.17,30.10,7,1,14,0.00
2013-8-19,75.8,63.6,53.3,62.5,57.0,52.2,97,81,60,30.17,30.11,5,1,17,0.00
2013-8-20,78.8,62.9,48.5,58.3,53.4,47.4,97,74,46,30.16,30.02,5,0,12,0.01
2013-8-21,82.8,63.1,49.1,58.8,53.9,47.8,97,75,44,30.04,29.91,5,0,9,0.00
2013-8-22,66.0,58.2,53.3,58.3,55.1,51.3,95,90,76,29.98,29.92,3,0,9,0.00
2013-8-23,70.4,62.1,58.0,60.5,58.3,56.5,96,88,68,30.00,29.96,5,0,12,0.01
2013-8-24,71.0,63.3,57.1,59.8,57.6,55.2,95,83,61,29.96,29.92,7,1,14,0.00
2013-8-25,70.0,58.9,53.0,59.6,55.2,51.9,97,88,68,29.98,29.93,2,0,7,0.02
2013-8-26,72.9,59.8,52.9,59.5,55.4,51.8,97,87,51,29.99,29.94,2,0,13,0.34
2013-8-27,73.0,64.3,60.2,65.2,61.3,59.1,98,91,71,29.98,29.88,5,0,12,0.10
2013-8-28,71.2,65.0,61.9,64.4,61.9,60.7,97,90,77,29.94,29.87,5,0,10,0.03
2013-8-29,69.4,64.0,61.2,66.4,62.8,60.2,98,96,90,30.11,29.88,6,0,17,0.43
2013-8-30,77.6,67.2,57.7,65.5,61.3,55.7,97,83,53,30.16,30.07,5,0,12,0.01
2013-8-31,76.5,61.2,52.6,64.1,56.8,51.5,98,87,62,30.07,29.94,7,1,10,0.00
2013-9-1,76.3,65.6,56.2,63.0,58.2,54.2,96,79,51,29.97,29.88,5,1,12,0.01
2013-9-2,73.8,65.4,55.8,63.6,59.6,53.8,97,83,57,29.98,29.90,5,0,12,0.08
2013-9-3,72.9,62.5,53.0,61.7,57.2,51.6,96,84,65,30.05,29.97,3,0,12,0.01
2013-9-4,70.6,63.5,59.1,61.5,59.4,57.7,96,87,67,30.09,30.03,3,0,10,0.00
2013-9-5,63.8,60.9,59.1,61.1,59.4,57.7,97,95,89,30.13,30.05,2,0,7,1.61
2013-9-6,67.8,63.2,58.5,62.0,60.1,57.1,97,90,74,30.20,30.12,3,0,10,0.06
2013-9-7,76.2,64.7,57.8,64.7,59.8,56.7,97,85,65,30.14,30.00,2,0,10,0.00
2013-9-8,82.5,66.9,57.6,66.5,60.9,56.8,97,83,54,30.09,30.02,3,0,10,0.00
2013-9-9,78.5,65.5,57.1,65.8,60.3,56.3,98,85,62,30.06,29.95,3,0,9,0.00
2013-9-10,86.0,69.0,55.0,67.4,61.4,54.0,98,79,53,29.95,29.78,3,0,7,0.01
2013-9-11,68.8,61.5,56.9,61.2,57.8,54.9,95,88,74,30.03,29.83,3,0,12,0.00
2013-9-12,67.9,61.0,57.1,60.4,57.9,55.7,95,90,77,30.04,30.01,2,0,9,0.00
2013-9-13,65.5,61.1,57.0,60.9,58.6,55.6,97,92,84,30.04,29.90,2,0,5,0.01
2013-9-14,68.4,61.5,58.8,63.4,59.3,57.7,96,93,84,29.90,29.80,2,0,6,0.02
2013-9-15,62.5,60.4,58.8,61.0,58.8,57.7,97,95,88,29.95,29.79,2,0,12,0.12
2013-9-16,69.4,62.0,58.2,61.5,58.8,57.1,97,90,76,30.03,29.94,3,0,10,0.00
2013-9-17,67.3,60.6,55.7,57.3,56.1,53.5,96,86,63,30.07,29.91,5,0,12,0.02
2013-9-18,70.6,59.9,52.5,59.6,55.1,50.8,98,86,61,30.14,30.03,3,0,12,0.10
2013-9-19,73.6,59.5,48.8,56.9,52.2,47.7,96,79,54,30.03,29.83,2,0,12,0.01
2013-9-20,63.1,56.6,49.9,60.4,54.9,48.5,97,94,82,29.83,29.70,2,0,13,0.20
2013-9-21,64.4,58.4,54.5,58.3,55.6,53.7,98,91,77,29.84,29.71,2,0,10,0.02
2013-9-22,59.9,57.8,55.9,58.8,56.0,54.0,97,94,85,29.91,29.72,3,0,20,2.27
2013-9-23,61.6,58.0,54.9,60.2,56.4,53.8,97,94,87,30.05,29.91,2,0,12,5.17
2013-9-24,57.1,53.6,49.5,55.1,52.4,48.7,97,96,90,30.03,29.92,5,0,12,0.00
2013-9-25,66.3,56.1,47.4,57.1,51.9,46.6,98,87,67,30.10,29.92,1,0,12,0.03
2013-9-26,64.4,60.9,58.4,54.3,51.8,49.4,76,72,69,30.23,30.10,0,0,0,0.00
2013-9-27,61.1,58.9,57.7,52.1,50.3,48.9,78,73,72,30.23,29.98,0,0,0,0.00
2013-9-28,61.9,60.8,59.4,55.0,53.5,51.1,80,77,74,29.97,29.58,0,0,0,0.00
2013-9-29,64.2,61.8,60.7,56.9,54.5,53.4,79,77,75,29.74,29.47,0,0,0,0.00
2013-9-30,60.2,55.6,51.5,55.2,51.3,49.3,93,86,77,30.05,29.97,8,1,20,0.00
2013-10-1,59.8,52.9,44.2,53.2,48.4,42.8,96,86,62,30.24,30.02,5,0,14,0.00
2013-10-2,57.9,47.7,41.0,52.4,45.9,39.9,98,94,81,30.25,30.13,2,0,10,0.00
2013-10-3,63.1,50.3,41.9,51.1,45.5,41.1,98,85,56,30.45,30.25,2,0,7,0.00
2013-10-4,70.6,53.8,41.3,54.5,47.2,40.2,97,81,47,30.46,30.35,3,0,9,0.00
2013-10-5,76.8,57.9,43.7,51.3,45.7,39.6,96,70,27,30.35,30.14,5,0,13,0.00
2013-10-6,71.5,56.1,45.8,54.6,49.0,43.1,95,80,36,30.14,30.04,3,0,20,0.00
2013-10-7,61.0,55.4,50.8,55.3,51.9,48.9,97,88,70,30.22,30.04,5,0,16,0.00
2013-10-8,55.0,51.1,44.6,53.0,49.8,43.5,97,95,89,30.22,30.07,2,0,12,0.00
2013-10-9,62.7,50.0,41.1,50.6,45.1,40.0,98,85,58,30.12,30.02,3,0,9,0.00
2013-10-10,59.8,50.1,43.4,53.6,47.8,42.3,97,92,77,30.15,30.00,2,0,10,0.00
2013-10-11,58.7,49.3,43.6,50.9,46.1,42.6,98,90,67,30.19,30.15,3,0,7,0.00
2013-10-12,57.6,48.7,42.6,52.8,46.7,41.5,98,93,80,30.16,30.11,1,0,6,0.00
2013-10-13,64.3,53.7,43.0,52.6,48.1,42.2,98,83,62,30.32,30.25,3,0,7,0.00
2013-10-14,69.1,52.1,39.0,51.0,45.1,38.0,98,81,46,30.37,30.29,2,0,6,0.00
2013-10-15,70.9,54.3,42.3,47.4,43.5,39.8,96,71,34,30.32,30.16,5,0,10,0.00
2013-10-16,67.8,50.8,39.5,53.0,45.9,38.5,98,85,50,30.19,30.14,3,0,7,0.00
2013-10-17,68.6,51.9,40.2,56.3,47.7,39.2,98,87,59,30.24,30.16,3,0,6,0.00
2013-10-18,74.9,55.2,42.4,50.4,45.4,41.3,97,75,34,30.17,30.09,3,0,12,0.00
2013-10-19,69.5,52.6,40.5,53.8,47.2,39.4,97,84,51,30.18,30.12,0,0,1,0.00
2013-10-20,64.7,55.3,43.3,56.6,50.7,42.5,98,86,73,30.17,30.12,0,0,0,0.00
2013-10-21,64.7,64.7,64.7,56.6,56.6,56.6,75,75,75,30.12,30.12,0,0,0,0.00
2013-10-22,64.7,64.7,64.7,56.6,56.6,56.6,75,75,75,30.12,30.12,0,0,0,0.00
2013-10-23,64.7,64.7,64.7,56.6,56.6,56.6,75,75,75,30.12,30.12,0,0,0,0.00
2013-10-24,64.7,64.7,64.7,56.6,56.6,56.6,75,75,75,30.12,30.12,0,0,0,0.00
2013-10-25,64.7,64.7,64.7,56.6,56.6,56.6,75,75,75,30.12,30.12,0,0,0,0.00
2013-10-26,64.7,64.7,64.7,56.6,56.6,56.6,75,75,75,30.12,30.12,0,0,0,0.00
2013-10-27,64.7,64.7,64.7,56.6,56.6,56.6,75,75,75,30.12,30.12,0,0,0,0.00
2013-10-28,64.7,64.7,64.7,56.6,56.6,56.6,75,75,75,30.12,30.12,0,0,0,0.00
2013-10-29,64.7,64.7,64.7,56.6,56.6,56.6,75,75,75,30.12,30.12,0,0,0,0.00
2013-10-30,64.7,64.7,64.7,56.6,56.6,56.6,75,75,75,30.12,30.12,0,0,0,0.00
2013-10-31,64.7,64.7,64.7,56.6,56.6,56.6,75,75,75,30.12,30.12,0,0,0,0.00
2013-11-1,64.7,64.7,64.7,56.6,56.6,56.6,75,75,75,30.12,30.12,0,0,0,0.00
2013-11-2,64.7,64.7,64.7,56.6,56.6,56.6,75,75,75,30.12,30.12,0,0,0,0.00
2013-11-3,64.7,64.7,64.7,56.6,56.6,56.6,75,75,75,30.12,30.12,0,0,0,0.00
2013-11-4,64.7,64.7,64.7,56.6,56.6,56.6,75,75,75,30.12,30.12,0,0,0,0.00
2013-11-5,54.1,53.9,53.7,53.5,53.3,52.9,98,98,97,30.31,30.28,0,0,0,0.02
2013-11-6,59.2,55.8,53.9,57.8,54.9,51.5,98,97,88,30.33,30.15,0,0,2,0.14
2013-11-7,55.2,52.4,48.7,54.4,49.7,45.6,98,91,80,30.23,30.00,5,0,20,0.58
2013-11-8,53.2,49.2,43.8,50.1,46.0,40.4,91,89,87,30.27,30.17,1,0,3,0.11
2013-11-9,53.0,47.8,41.8,49.2,44.3,38.2,91,88,85,30.17,30.08,3,0,13,0.01
2013-11-10,63.7,52.3,47.1,54.3,48.0,44.4,90,86,63,30.13,30.07,5,0,12,0.00
2013-11-11,60.6,53.8,47.0,51.9,47.6,43.5,91,80,71,30.14,30.03,6,1,17,0.00
2013-11-12,58.2,53.8,50.0,55.3,50.5,46.7,90,88,86,30.50,30.12,2,0,12,0.33
2013-11-13,54.5,50.2,45.2,51.8,47.1,42.4,91,89,87,30.53,30.38,2,0,6,0.00
2013-11-14,51.3,47.2,44.3,48.7,44.3,41.0,91,90,88,30.37,30.19,0,0,3,0.22
2013-11-15,50.5,45.8,41.4,47.0,42.6,38.1,90,89,88,30.19,29.72,3,0,10,0.37
2013-11-16,51.0,48.2,46.1,48.0,45.4,43.9,92,90,80,29.96,29.71,2,0,10,0.23
2013-11-17,53.9,49.9,46.8,50.3,47.1,44.3,92,90,87,30.07,29.96,2,0,9,0.20
2013-11-18,55.0,52.0,49.6,52.4,49.3,47.1,91,90,89,30.05,29.79,6,1,21,0.66
2013-11-19,55.0,49.1,37.7,51.3,45.9,33.0,91,89,80,30.09,29.77,3,1,13,0.36
2013-11-20,40.2,32.0,29.9,35.7,29.9,28.3,95,92,84,30.42,30.09,2,0,9,0.01
2013-11-21,49.8,35.1,26.7,28.4,23.7,16.3,94,69,28,30.58,30.42,3,0,13,0.00
2013-11-22,53.1,48.4,41.1,22.9,20.2,15.5,36,33,27,30.54,30.35,10,3,23,0.00
2013-11-23,58.0,50.1,45.4,27.8,22.9,18.5,39,34,29,30.34,30.15,7,2,24,0.00
2013-11-24,60.8,48.2,38.6,38.1,30.2,22.5,84,52,36,30.30,30.15,5,0,18,0.00
2013-11-25,58.0,43.1,34.5,43.0,36.3,31.1,90,78,46,30.36,30.30,1,0,6,0.00
2013-11-26,52.8,45.9,37.5,43.1,38.5,34.3,90,76,61,30.31,30.09,2,0,13,0.00
2013-11-27,58.5,50.6,45.4,39.1,36.6,34.6,72,59,47,30.08,29.96,3,0,15,0.00
2013-11-28,60.9,48.4,38.4,41.0,36.5,32.7,91,65,44,30.26,30.03,1,0,12,0.00
2013-11-29,52.1,42.8,32.8,46.3,39.7,31.5,95,89,75,30.42,30.25,2,0,9,0.01
2013-11-30,54.6,48.0,42.7,49.7,45.6,41.6,97,92,81,30.46,30.33,1,0,4,0.04
2013-12-1,53.5,52.9,51.0,52.7,52.1,50.2,97,97,97,30.33,30.08,9,2,22,1.46
2013-12-2,52.8,43.7,36.7,52.0,41.4,35.7,97,92,70,30.15,30.07,6,1,22,1.01
2013-12-3,42.7,36.4,29.1,38.4,32.9,25.2,98,87,69,30.33,30.13,2,0,12,0.03
2013-12-4,39.8,31.8,25.3,26.4,22.2,18.3,93,70,43,30.39,30.33,2,0,10,0.00
2013-12-5,31.9,31.8,31.1,23.1,20.5,20.0,72,63,61,30.34,30.17,1,0,14,0.00
2013-12-6,31.3,28.6,24.7,26.4,24.1,21.2,92,83,66,30.17,29.97,7,1,20,0.00
2013-12-7,30.1,22.7,16.4,20.9,15.8,12.7,92,76,55,30.50,30.13,7,0,12,0.05
2013-12-8,33.7,26.3,15.6,23.0,16.1,9.9,86,66,48,30.64,30.48,2,0,12,0.04
2013-12-9,40.6,31.5,23.4,31.2,23.9,16.1,87,74,61,30.65,30.58,1,0,5,0.02
2013-12-10,44.8,37.5,31.6,35.1,32.0,29.3,92,81,67,30.60,30.43,3,0,8,0.01
2013-12-11,48.8,40.0,33.5,35.9,32.5,30.2,88,75,60,30.43,30.23,3,0,13,0.00
2013-12-12,46.5,37.3,30.0,45.7,35.6,28.4,97,93,88,30.27,30.16,1,0,3,0.40
2013-12-13,50.3,46.3,41.0,49.5,45.5,40.2,98,97,96,30.49,30.27,1,0,5,0.12
2013-12-14,47.6,43.6,39.6,46.0,42.5,38.8,98,96,92,30.52,30.42,1,0,4,0.00
2013-12-15,51.2,47.0,43.3,50.4,46.4,42.6,98,98,97,30.53,30.49,0,0,3,0.05
2013-12-16,54.6,48.3,42.6,47.6,43.5,38.8,98,84,68,30.52,30.26,5,0,13,0.00
2013-12-17,49.8,41.9,34.8,44.1,39.4,33.5,96,91,78,30.29,30.23,1,0,7,0.00
2013-12-18,47.8,42.6,35.6,45.6,40.7,34.0,98,93,84,30.25,30.12,3,0,13,0.04
2013-12-19,42.3,34.8,29.3,36.3,32.3,28.3,97,91,76,30.38,30.21,1,0,6,0.01
2013-12-20,50.5,41.2,33.4,50.0,39.9,31.9,98,95,91,30.30,30.01,5,0,12,0.64
2013-12-21,49.9,48.2,46.0,49.3,47.2,45.2,98,96,91,30.34,30.08,5,0,12,0.15
2013-12-22,51.2,49.4,46.2,50.1,48.6,45.5,98,97,96,30.43,30.33,1,0,4,0.07
2013-12-23,51.2,51.2,51.2,50.1,50.1,50.1,96,96,96,30.42,30.42,0,0,0,0.00
2013-12-24,51.2,51.2,51.2,50.1,50.1,50.1,96,96,96,30.42,30.42,0,0,0,0.00
2013-12-25,51.2,51.2,51.2,50.1,50.1,50.1,96,96,96,30.42,30.42,0,0,0,0.00
2013-12-26,51.2,51.2,51.2,50.1,50.1,50.1,96,96,96,30.42,30.42,0,0,0,0.00
2013-12-27,53.2,50.0,46.2,50.1,47.1,41.8,96,90,67,30.45,30.27,3,0,6,0.00
2013-12-28,47.7,43.1,39.6,43.7,39.7,36.5,96,88,75,30.56,30.45,2,0,10,0.00
2013-12-29,52.2,42.3,33.7,40.9,36.1,32.4,96,80,53,30.51,30.31,5,0,12,0.00
2013-12-30,51.5,44.6,38.8,43.4,38.7,34.3,95,80,69,30.32,30.22,0,0,7,0.00
2013-12-31,53.1,43.0,37.9,46.9,40.8,36.8,97,92,79,30.40,30.29,2,0,4,0.00
2014-1-1,54.0,45.9,38.8,46.0,41.6,37.8,97,85,72,30.39,30.27,5,0,12,0.01
2014-1-2,59.6,48.6,42.0,46.5,42.9,39.4,96,81,59,30.29,30.15,1,0,5,0.10